FVPL weather

Plumtree Airport
Plumtree, Matabeleland South Province, Zimbabwe

Public forecast

Using degrees Celsius for public forecast. Weather courtesy of forecast.io.

METAR (pilot weather report)

Closest report is Francistown Airport, 44.2 nm (81.8 km) SSW. Retrieved 2019/04/21 07:00 UTC (57 minutes ago):

FBFT 210700Z 33004KT 290V040 CAVOK 23/10 Q1021

TAF (pilot weather forecast)

Forecast is more than 12 hours old.

Closest forecast is Francistown Airport, 44.2 nm (81.8 km) SSW. Retrieved 2018/12/25 00:09 UTC (4 months ago):

TAF FBFT 250000Z 2500/2512 04008KT CAVOK